Weather at Bowers Field

Public forecast

Using degrees Fahrenheit for public forecast. Weather courtesy of forecast.io.

Current aviation weather report (METAR) for Bowers Field

2024/05/28 22:53 (retrieved 1 hour ago)

KELN 282253Z AUTO 31021G32KT 10SM BKN110 16/05 A3001 RMK AO2 PK WND 31036/2243 SLP162 T01610050

Closest aviation forecast (TAF) to Bowers Field

Closest forecast is Pangborn Memorial Airport, 25.6 nm (47.5 km) NNE.

2024/05/28 18:22 (retrieved 6 hours ago)

TAF KEAT 281720Z 2818/2918 30011KT P6SM OVC120 FM281900 30016G25KT P6SM OVC120 FM290200 30022G29KT P6SM SKC FM290500 29016G26KT P6SM SKC FM291200 31012KT P6SM SCT250 FM291700 29015KT P6SM SCT250